Time;durP1;ratioP1;P1;durP2;ratioP2;P2;SDS_P1;SDS_P2;PMS_P1;PMS_P2;Temp;Humidity;BMP_temperature;BMP_pressure;BME280_temperature;BME280_humidity;BME280_pressure;Samples;Min_cycle;Max_cycle;Signal;HPM_P1;HPM_P2
2021/12/23 00:00:54;;;;;;;;;;;0.70;1.00;;;;;;4872756;29;19928;-82
2021/12/23 00:03:19;;;;;;;;;;;1.00;1.00;;;;;;4894669;29;19994;-83
2021/12/23 00:05:45;;;;;;;;;;;-0.50;1.00;;;;;;4879090;29;20018;-83
2021/12/23 00:08:10;;;;;;;;;;;1.00;1.00;;;;;;4890637;29;19927;-82
2021/12/23 00:10:36;;;;;;;;;;;-0.70;1.00;;;;;;4894480;29;19935;-82
2021/12/23 00:13:01;;;;;;;;;;;-0.70;1.00;;;;;;4878256;29;20121;-82
2021/12/23 00:15:37;;;;;;;;;;;2.10;1.00;;;;;;4879483;29;19934;-82
2021/12/23 00:18:17;;;;;;;;;;;-0.50;1.00;;;;;;4893835;29;19934;-83
2021/12/23 00:26:06;;;;;;;;;;;1.10;1.00;;;;;;4852849;29;20049;-82
2021/12/23 00:28:32;;;;;;;;;;;-0.20;99.90;;;;;;4894132;29;20373;-84
2021/12/23 00:30:59;;;;;;;;;;;0.20;99.90;;;;;;4894585;29;19935;-83
2021/12/23 00:33:25;;;;;;;;;;;1.20;99.90;;;;;;4895932;29;19927;-83
2021/12/23 00:35:53;;;;;;;;;;;-0.60;99.90;;;;;;4877833;29;20436;-84
2021/12/23 00:38:27;;;;;;;;;;;0.90;99.90;;;;;;4878797;29;19927;-84
2021/12/23 00:40:53;;;;;;;;;;;-0.40;99.90;;;;;;4892414;29;19938;-84
2021/12/23 00:43:21;;;;;;;;;;;-0.60;99.90;;;;;;4894765;29;19927;-84
2021/12/23 00:45:48;;;;;;;;;;;-0.10;99.90;;;;;;4894451;29;19934;-84
2021/12/23 00:48:14;;;;;;;;;;;-0.20;99.90;;;;;;4895003;29;19928;-84
2021/12/23 00:50:39;;;;;;;;;;;1.40;99.90;;;;;;4897494;29;19927;-84
2021/12/23 00:53:07;;;;;;;;;;;2.50;99.90;;;;;;4898306;29;19939;-83
2021/12/23 00:55:33;;;;;;;;;;;0.40;99.90;;;;;;4867261;29;20380;-84
2021/12/23 00:58:00;;;;;;;;;;;1.90;99.90;;;;;;4897950;29;19946;-84
2021/12/23 01:00:25;;;;;;;;;;;1.10;99.90;;;;;;4897843;29;20455;-84
2021/12/23 01:02:51;;;;;;;;;;;1.60;99.90;;;;;;4881630;29;19928;-83
2021/12/23 01:05:18;;;;;;;;;;;1.20;99.90;;;;;;4899410;29;19958;-83
2021/12/23 01:07:44;;;;;;;;;;;2.50;99.90;;;;;;4896202;29;20033;-84
2021/12/23 01:10:10;;;;;;;;;;;0.30;99.90;;;;;;4897720;29;19967;-83
2021/12/23 01:12:59;;;;;;;;;;;0.60;99.90;;;;;;4897379;29;19995;-84
2021/12/23 01:20:27;;;;;;;;;;;-0.40;99.90;;;;;;4898278;29;19943;-83
2021/12/23 01:22:53;;;;;;;;;;;-0.10;99.90;;;;;;4895929;29;19931;-82
2021/12/23 01:25:20;;;;;;;;;;;1.30;99.90;;;;;;4897875;29;19928;-83
2021/12/23 01:27:45;;;;;;;;;;;-0.20;99.90;;;;;;4898078;29;19978;-84
2021/12/23 01:30:11;;;;;;;;;;;0.00;99.90;;;;;;4878280;29;19986;-83
2021/12/23 01:32:36;;;;;;;;;;;0.00;99.90;;;;;;4881912;29;20369;-83
2021/12/23 01:35:02;;;;;;;;;;;-0.40;99.90;;;;;;4880987;29;19927;-84
2021/12/23 01:37:28;;;;;;;;;;;0.60;99.90;;;;;;4874926;29;19979;-84
2021/12/23 01:39:53;;;;;;;;;;;0.50;99.90;;;;;;4897452;29;19939;-84
2021/12/23 01:42:19;;;;;;;;;;;-0.30;99.90;;;;;;4898753;29;20126;-84
2021/12/23 01:44:45;;;;;;;;;;;0.40;99.90;;;;;;4881116;29;19985;-84
2021/12/23 01:47:10;;;;;;;;;;;0.40;99.90;;;;;;4896802;29;19931;-84
2021/12/23 01:49:36;;;;;;;;;;;0.00;99.90;;;;;;4898388;29;19927;-85
2021/12/23 01:52:02;;;;;;;;;;;2.20;99.90;;;;;;4881487;29;19935;-84
2021/12/23 01:54:27;;;;;;;;;;;0.40;99.90;;;;;;4897349;29;20333;-84
2021/12/23 01:56:53;;;;;;;;;;;2.80;99.90;;;;;;4896931;29;20059;-85
2021/12/23 01:59:19;;;;;;;;;;;2.00;99.90;;;;;;4896378;29;19938;-84
2021/12/23 02:01:44;;;;;;;;;;;1.10;99.90;;;;;;4897601;29;19975;-84
2021/12/23 02:04:10;;;;;;;;;;;0.40;99.90;;;;;;4864626;29;20011;-84
2021/12/23 02:06:36;;;;;;;;;;;0.00;99.90;;;;;;4895691;29;19934;-84
2021/12/23 02:09:02;;;;;;;;;;;1.20;99.90;;;;;;4896340;29;19928;-83
2021/12/23 02:11:27;;;;;;;;;;;0.70;99.90;;;;;;4898699;29;19975;-83
2021/12/23 02:13:53;;;;;;;;;;;1.50;99.90;;;;;;4878903;29;20282;-84
2021/12/23 02:16:18;;;;;;;;;;;1.10;99.90;;;;;;4896918;29;19927;-83
2021/12/23 02:18:44;;;;;;;;;;;-0.20;99.90;;;;;;4879984;29;19982;-84
2021/12/23 02:21:10;;;;;;;;;;;1.70;99.90;;;;;;4896071;29;19932;-83
2021/12/23 02:23:36;;;;;;;;;;;0.00;99.90;;;;;;4897050;29;19963;-84
2021/12/23 02:26:01;;;;;;;;;;;-0.20;99.90;;;;;;4876756;29;19994;-83
2021/12/23 02:28:27;;;;;;;;;;;2.40;99.90;;;;;;4894086;29;20046;-83
2021/12/23 02:30:53;;;;;;;;;;;0.70;99.90;;;;;;4878858;29;19927;-84
2021/12/23 02:33:20;;;;;;;;;;;-0.10;99.90;;;;;;4897989;29;19957;-83
2021/12/23 02:35:45;;;;;;;;;;;0.00;99.90;;;;;;4896273;29;19927;-83
2021/12/23 02:38:11;;;;;;;;;;;-0.20;99.90;;;;;;4877223;29;19935;-83
2021/12/23 02:40:38;;;;;;;;;;;-0.10;99.90;;;;;;4898480;29;19928;-83
2021/12/23 02:43:09;;;;;;;;;;;0.00;99.90;;;;;;4896276;29;20411;-84
2021/12/23 02:45:35;;;;;;;;;;;-0.10;99.90;;;;;;4896687;29;19928;-84
2021/12/23 02:48:01;;;;;;;;;;;-2.40;99.90;;;;;;4878952;29;19935;-83
2021/12/23 02:50:27;;;;;;;;;;;-0.20;99.90;;;;;;4897528;29;19950;-83
2021/12/23 02:52:53;;;;;;;;;;;2.40;99.90;;;;;;4895783;29;19928;-84
2021/12/23 02:55:19;;;;;;;;;;;-0.30;99.90;;;;;;4878918;29;19959;-84
2021/12/23 02:57:45;;;;;;;;;;;2.80;99.90;;;;;;4879260;29;20367;-84
2021/12/23 03:00:11;;;;;;;;;;;1.90;99.90;;;;;;4895294;29;20018;-84
2021/12/23 03:02:37;;;;;;;;;;;-0.10;99.90;;;;;;4896161;29;20261;-84
2021/12/23 03:05:03;;;;;;;;;;;1.80;99.90;;;;;;4897298;29;20403;-84
2021/12/23 03:07:28;;;;;;;;;;;0.00;99.90;;;;;;4895808;29;19928;-84
2021/12/23 03:09:54;;;;;;;;;;;2.20;99.90;;;;;;4877475;29;20333;-84
2021/12/23 03:12:19;;;;;;;;;;;0.30;99.90;;;;;;4895578;29;19938;-84
2021/12/23 03:14:45;;;;;;;;;;;0.40;99.90;;;;;;4880193;29;19932;-84
2021/12/23 03:17:11;;;;;;;;;;;-0.20;99.90;;;;;;4895447;29;19927;-84
2021/12/23 03:19:36;;;;;;;;;;;-0.20;99.90;;;;;;4893800;29;19946;-84
2021/12/23 03:22:02;;;;;;;;;;;2.20;99.90;;;;;;4894460;29;19943;-85
2021/12/23 03:24:28;;;;;;;;;;;0.00;99.90;;;;;;4876917;29;19927;-84
2021/12/23 03:26:54;;;;;;;;;;;-1.70;99.90;;;;;;4896338;29;20376;-83
2021/12/23 03:29:19;;;;;;;;;;;-0.30;99.90;;;;;;4880038;29;19994;-84
2021/12/23 03:31:54;;;;;;;;;;;0.00;99.90;;;;;;5071951;28;19921;-84
2021/12/23 03:34:19;;;;;;;;;;;2.00;99.90;;;;;;5065597;28;20334;-84
2021/12/23 03:36:45;;;;;;;;;;;1.10;99.90;;;;;;5065500;28;20019;-83
2021/12/23 03:39:11;;;;;;;;;;;0.30;99.90;;;;;;5062957;28;20321;-84
2021/12/23 03:41:36;;;;;;;;;;;0.00;99.90;;;;;;5061272;28;19929;-84
2021/12/23 03:44:02;;;;;;;;;;;-0.20;99.90;;;;;;5054495;28;19924;-83
2021/12/23 03:46:28;;;;;;;;;;;0.00;99.90;;;;;;5059151;28;19986;-84
2021/12/23 03:48:53;;;;;;;;;;;-0.10;99.90;;;;;;5068843;28;19933;-83
2021/12/23 03:51:19;;;;;;;;;;;-0.20;99.90;;;;;;5065852;28;19931;-83
2021/12/23 03:53:44;;;;;;;;;;;1.70;99.90;;;;;;5063594;28;19967;-82
2021/12/23 03:56:10;;;;;;;;;;;-0.20;99.90;;;;;;5066345;28;19978;-83
2021/12/23 03:58:39;;;;;;;;;;;2.10;99.90;;;;;;5068602;28;20028;-83
2021/12/23 04:01:05;;;;;;;;;;;1.20;99.90;;;;;;5065216;28;20015;-83
2021/12/23 04:03:31;;;;;;;;;;;-0.10;99.90;;;;;;5054355;28;19932;-83
2021/12/23 04:05:56;;;;;;;;;;;3.30;99.90;;;;;;5055075;28;19933;-83
2021/12/23 04:08:22;;;;;;;;;;;-0.20;99.90;;;;;;5052904;28;19925;-83
2021/12/23 04:10:47;;;;;;;;;;;1.20;99.90;;;;;;5066791;28;20435;-84
2021/12/23 04:13:13;;;;;;;;;;;-0.10;99.90;;;;;;5063145;28;19994;-83
2021/12/23 04:15:39;;;;;;;;;;;0.00;99.90;;;;;;5063402;28;19933;-83
2021/12/23 04:18:04;;;;;;;;;;;2.30;99.90;;;;;;5061498;28;20027;-84
2021/12/23 04:20:45;;;;;;;;;;;-0.10;99.90;;;;;;5063242;28;20369;-84
2021/12/23 04:23:11;;;;;;;;;;;2.30;99.90;;;;;;5077748;28;19925;-84
2021/12/23 04:25:36;;;;;;;;;;;2.30;99.90;;;;;;5058410;28;19924;-84
2021/12/23 04:28:03;;;;;;;;;;;0.70;99.90;;;;;;5061627;28;20395;-85
2021/12/23 04:30:29;;;;;;;;;;;0.20;99.90;;;;;;5055529;28;19932;-84
2021/12/23 04:32:55;;;;;;;;;;;0.40;99.90;;;;;;5064682;28;19974;-84
2021/12/23 04:35:20;;;;;;;;;;;2.70;99.90;;;;;;5062615;28;20011;-84
2021/12/23 04:37:46;;;;;;;;;;;2.70;99.90;;;;;;5059128;28;19931;-83
2021/12/23 04:40:12;;;;;;;;;;;3.10;99.90;;;;;;5059461;28;20278;-84
2021/12/23 04:42:38;;;;;;;;;;;0.20;99.90;;;;;;5049586;28;20023;-84
2021/12/23 04:45:04;;;;;;;;;;;0.20;99.90;;;;;;5047663;28;19968;-84
2021/12/23 04:47:30;;;;;;;;;;;0.20;99.90;;;;;;5048393;28;19925;-83
2021/12/23 04:49:55;;;;;;;;;;;3.10;99.90;;;;;;5035844;28;19932;-84
2021/12/23 04:52:21;;;;;;;;;;;0.70;99.90;;;;;;5042613;28;19931;-84
2021/12/23 04:54:46;;;;;;;;;;;1.60;99.90;;;;;;5043030;28;19983;-84
2021/12/23 04:57:12;;;;;;;;;;;2.40;99.90;;;;;;5038288;28;20046;-84
2021/12/23 04:59:38;;;;;;;;;;;0.30;99.90;;;;;;5029892;28;19963;-84
2021/12/23 05:02:03;;;;;;;;;;;0.10;99.90;;;;;;5044573;28;20376;-84
2021/12/23 05:04:29;;;;;;;;;;;0.40;99.90;;;;;;5044133;28;19978;-84
2021/12/23 05:06:55;;;;;;;;;;;0.50;99.90;;;;;;5043537;28;19932;-84
2021/12/23 05:09:20;;;;;;;;;;;2.30;99.90;;;;;;5041868;28;19925;-84
2021/12/23 05:11:46;;;;;;;;;;;3.20;99.90;;;;;;5050396;28;19925;-83
2021/12/23 05:14:11;;;;;;;;;;;3.30;99.90;;;;;;5045994;28;19933;-84
2021/12/23 05:16:37;;;;;;;;;;;2.80;99.90;;;;;;5049255;28;19926;-84
2021/12/23 05:19:03;;;;;;;;;;;2.20;99.90;;;;;;5050299;28;20012;-84
2021/12/23 05:21:29;;;;;;;;;;;1.50;99.90;;;;;;5059116;28;20028;-82
2021/12/23 05:23:54;;;;;;;;;;;2.20;99.90;;;;;;5047926;28;19933;-83
2021/12/23 05:26:20;;;;;;;;;;;0.20;99.90;;;;;;5036956;28;20008;-83
2021/12/23 05:28:46;;;;;;;;;;;2.30;99.90;;;;;;5039336;28;20290;-83
2021/12/23 05:31:11;;;;;;;;;;;1.60;99.90;;;;;;5046607;28;19925;-83
2021/12/23 05:33:37;;;;;;;;;;;0.40;99.90;;;;;;5043249;28;20412;-83
2021/12/23 05:36:03;;;;;;;;;;;3.00;99.90;;;;;;5044699;28;20094;-85
2021/12/23 05:38:28;;;;;;;;;;;0.40;99.90;;;;;;5049749;28;20102;-84
2021/12/23 05:40:54;;;;;;;;;;;2.00;99.90;;;;;;5050676;28;19940;-84
2021/12/23 05:43:19;;;;;;;;;;;0.40;99.90;;;;;;5039411;28;19936;-83
2021/12/23 05:45:45;;;;;;;;;;;3.50;99.90;;;;;;5040990;28;19944;-83
2021/12/23 05:48:11;;;;;;;;;;;2.60;99.90;;;;;;5041646;28;19925;-83
2021/12/23 05:50:36;;;;;;;;;;;0.20;99.90;;;;;;5036785;28;19925;-84
2021/12/23 05:53:02;;;;;;;;;;;0.30;99.90;;;;;;5047741;28;20003;-84
2021/12/23 05:55:27;;;;;;;;;;;1.20;99.90;;;;;;5048392;28;19932;-84
2021/12/23 05:57:53;;;;;;;;;;;0.20;99.90;;;;;;5031734;28;19925;-84
2021/12/23 06:00:20;;;;;;;;;;;2.90;99.90;;;;;;5052333;28;19947;-83
2021/12/23 06:02:46;;;;;;;;;;;1.10;99.90;;;;;;5045706;28;19928;-83
2021/12/23 06:05:12;;;;;;;;;;;1.10;99.90;;;;;;5046948;28;19940;-83
2021/12/23 06:07:38;;;;;;;;;;;0.30;99.90;;;;;;5046727;28;19925;-83
2021/12/23 06:10:04;;;;;;;;;;;0.30;99.90;;;;;;5048146;28;19936;-84
2021/12/23 06:12:30;;;;;;;;;;;0.50;99.90;;;;;;5042153;28;19925;-84
2021/12/23 06:14:55;;;;;;;;;;;3.30;99.90;;;;;;5033899;28;19925;-84
2021/12/23 06:17:21;;;;;;;;;;;1.00;99.90;;;;;;5036687;28;19960;-83
2021/12/23 06:19:47;;;;;;;;;;;3.10;99.90;;;;;;5044954;28;20050;-84
2021/12/23 06:22:13;;;;;;;;;;;0.30;99.90;;;;;;5038148;28;19929;-84
2021/12/23 06:24:43;;;;;;;;;;;1.80;99.90;;;;;;5045076;28;19925;-83
2021/12/23 06:27:08;;;;;;;;;;;3.90;99.90;;;;;;5041637;28;20027;-84
2021/12/23 06:29:34;;;;;;;;;;;0.60;99.90;;;;;;5043385;28;19929;-85
2021/12/23 06:32:00;;;;;;;;;;;2.70;99.90;;;;;;5040007;28;19948;-83
2021/12/23 06:34:25;;;;;;;;;;;0.50;99.90;;;;;;5043680;28;20373;-82
2021/12/23 06:36:51;;;;;;;;;;;0.20;99.90;;;;;;5046446;28;19970;-83
2021/12/23 06:39:16;;;;;;;;;;;0.50;99.90;;;;;;5038948;28;19932;-85
2021/12/23 06:41:42;;;;;;;;;;;2.40;99.90;;;;;;5049613;28;19924;-84
2021/12/23 06:44:08;;;;;;;;;;;0.30;99.90;;;;;;5042167;28;20290;-85
2021/12/23 06:46:33;;;;;;;;;;;1.40;99.90;;;;;;5040607;28;19936;-85
2021/12/23 06:48:59;;;;;;;;;;;0.10;99.90;;;;;;5045535;28;19972;-85
2021/12/23 06:51:26;;;;;;;;;;;0.60;99.90;;;;;;5048540;28;19929;-85
2021/12/23 06:53:52;;;;;;;;;;;1.30;99.90;;;;;;5042658;28;19932;-84
2021/12/23 06:56:18;;;;;;;;;;;2.90;99.90;;;;;;5041442;28;19926;-84
2021/12/23 06:58:48;;;;;;;;;;;1.10;99.90;;;;;;5033653;28;19939;-85
2021/12/23 07:01:17;;;;;;;;;;;2.10;99.90;;;;;;5034407;28;20312;-85
2021/12/23 07:06:28;;;;;;;;;;;1.30;99.90;;;;;;5042312;28;20357;-85
2021/12/23 07:08:55;;;;;;;;;;;1.60;99.90;;;;;;5046695;28;19925;-85
2021/12/23 07:11:20;;;;;;;;;;;3.40;99.90;;;;;;5030531;28;19932;-84
2021/12/23 07:13:46;;;;;;;;;;;2.60;99.90;;;;;;5043261;28;19933;-84
2021/12/23 07:16:12;;;;;;;;;;;3.40;99.90;;;;;;5048130;28;20223;-84
2021/12/23 07:18:37;;;;;;;;;;;0.20;99.90;;;;;;5049395;28;20020;-84
2021/12/23 07:21:03;;;;;;;;;;;0.90;99.90;;;;;;5050233;28;19996;-84
2021/12/23 07:23:28;;;;;;;;;;;1.90;99.90;;;;;;5050918;28;20278;-84
2021/12/23 07:25:54;;;;;;;;;;;2.20;99.90;;;;;;5043087;28;19986;-84
2021/12/23 07:28:19;;;;;;;;;;;2.40;99.90;;;;;;5045489;28;19925;-84
2021/12/23 07:30:45;;;;;;;;;;;0.60;99.90;;;;;;5047456;28;20408;-84
2021/12/23 07:33:11;;;;;;;;;;;0.50;99.90;;;;;;5041145;28;19929;-85
2021/12/23 07:35:36;;;;;;;;;;;0.50;99.90;;;;;;5042385;28;19972;-84
2021/12/23 07:38:02;;;;;;;;;;;3.10;99.90;;;;;;5022335;28;19978;-84
2021/12/23 07:40:29;;;;;;;;;;;1.30;99.90;;;;;;5046987;28;20348;-84
2021/12/23 07:42:57;;;;;;;;;;;0.50;99.90;;;;;;5047031;28;19925;-84
2021/12/23 07:45:27;;;;;;;;;;;3.30;99.90;;;;;;5044394;28;20016;-84
2021/12/23 07:47:53;;;;;;;;;;;0.50;99.90;;;;;;5041487;28;20378;-85
2021/12/23 07:50:18;;;;;;;;;;;1.80;99.90;;;;;;5040341;28;19976;-84
2021/12/23 07:52:44;;;;;;;;;;;3.20;99.90;;;;;;5042447;28;19939;-85
2021/12/23 07:55:10;;;;;;;;;;;2.20;99.90;;;;;;5043097;28;19931;-85
2021/12/23 07:57:36;;;;;;;;;;;0.50;99.90;;;;;;5050343;28;19947;-84
2021/12/23 08:00:04;;;;;;;;;;;0.30;99.90;;;;;;5049943;28;19947;-85
2021/12/23 08:02:29;;;;;;;;;;;0.50;99.90;;;;;;5033128;28;19925;-84
2021/12/23 08:04:55;;;;;;;;;;;3.00;99.90;;;;;;5050549;28;19939;-84
2021/12/23 08:07:20;;;;;;;;;;;0.50;99.90;;;;;;5048587;28;19929;-85
2021/12/23 08:09:46;;;;;;;;;;;2.00;99.90;;;;;;5049636;28;19983;-84
2021/12/23 08:12:12;;;;;;;;;;;1.20;99.90;;;;;;5051139;28;19977;-84
2021/12/23 08:14:37;;;;;;;;;;;0.50;99.90;;;;;;5042709;28;20261;-85
2021/12/23 08:17:03;;;;;;;;;;;1.00;99.90;;;;;;5034554;28;19943;-84
2021/12/23 08:19:28;;;;;;;;;;;1.90;99.90;;;;;;5042569;28;20369;-83
2021/12/23 08:21:54;;;;;;;;;;;0.30;99.90;;;;;;5016372;28;19995;-84
2021/12/23 08:24:19;;;;;;;;;;;0.30;99.90;;;;;;5032455;28;20271;-83
2021/12/23 08:26:51;;;;;;;;;;;2.00;99.90;;;;;;5033454;28;19925;-84
2021/12/23 08:29:18;;;;;;;;;;;0.40;99.90;;;;;;5040139;28;20344;-84
2021/12/23 08:31:52;;;;;;;;;;;2.60;99.90;;;;;;5042644;28;19924;-85
2021/12/23 08:34:18;;;;;;;;;;;0.50;99.90;;;;;;5054178;28;19958;-84
2021/12/23 08:36:44;;;;;;;;;;;2.90;99.90;;;;;;5051494;28;19933;-84
2021/12/23 08:39:10;;;;;;;;;;;2.10;99.90;;;;;;5052235;28;20011;-83
2021/12/23 08:41:35;;;;;;;;;;;3.10;99.90;;;;;;5053102;28;19925;-83
2021/12/23 08:44:01;;;;;;;;;;;2.80;99.90;;;;;;5032119;28;19939;-83
2021/12/23 08:46:26;;;;;;;;;;;0.50;99.90;;;;;;5032737;28;19978;-84
2021/12/23 08:48:52;;;;;;;;;;;3.30;99.90;;;;;;5034232;28;20015;-85
2021/12/23 08:51:18;;;;;;;;;;;0.50;99.90;;;;;;5043562;28;19933;-84
2021/12/23 08:53:43;;;;;;;;;;;2.80;99.90;;;;;;5035832;28;19936;-84
2021/12/23 08:56:09;;;;;;;;;;;0.40;1.00;;;;;;5053714;28;20424;-85
2021/12/23 08:58:35;;;;;;;;;;;1.60;1.00;;;;;;5052920;28;20067;-84
2021/12/23 09:01:01;;;;;;;;;;;2.90;1.00;;;;;;5040448;28;19965;-85
2021/12/23 09:03:27;;;;;;;;;;;1.30;1.00;;;;;;5039322;28;20026;-85
2021/12/23 09:05:52;;;;;;;;;;;0.30;10.50;;;;;;5032592;28;20373;-84
2021/12/23 09:08:18;;;;;;;;;;;0.20;78.10;;;;;;5053711;28;19951;-84
2021/12/23 09:10:43;;;;;;;;;;;2.00;99.90;;;;;;5043893;28;20405;-85
2021/12/23 09:13:09;;;;;;;;;;;0.40;99.90;;;;;;5033741;28;19932;-80
2021/12/23 09:15:34;;;;;;;;;;;0.30;99.90;;;;;;5043364;28;19932;-85
2021/12/23 09:18:00;;;;;;;;;;;2.80;99.90;;;;;;5053462;28;19932;-84
2021/12/23 09:20:26;;;;;;;;;;;2.00;99.90;;;;;;5050711;28;19925;-84
2021/12/23 09:22:52;;;;;;;;;;;0.50;99.90;;;;;;5031876;28;19925;-85
2021/12/23 09:25:25;;;;;;;;;;;0.50;99.90;;;;;;5039338;28;19959;-85
2021/12/23 09:33:09;;;;;;;;;;;1.70;1.00;;;;;;5053381;28;19932;-84
2021/12/23 09:35:34;;;;;;;;;;;1.80;1.00;;;;;;5046042;28;20012;-85
2021/12/23 09:38:00;;;;;;;;;;;0.40;1.00;;;;;;5032561;28;20015;-85
2021/12/23 09:40:29;;;;;;;;;;;3.00;67.70;;;;;;5049404;28;19925;-85
2021/12/23 09:42:58;;;;;;;;;;;0.90;99.90;;;;;;5052240;28;19987;-84
2021/12/23 09:45:24;;;;;;;;;;;0.60;99.90;;;;;;5052037;28;19947;-85
2021/12/23 09:47:50;;;;;;;;;;;0.90;99.90;;;;;;5032792;28;19925;-85
2021/12/23 09:50:18;;;;;;;;;;;1.10;99.90;;;;;;5021229;28;19924;-86
2021/12/23 09:52:51;;;;;;;;;;;0.90;99.90;;;;;;5050093;28;19947;-86
2021/12/23 09:55:18;;;;;;;;;;;0.40;99.90;;;;;;5045832;28;20373;-85
2021/12/23 09:57:48;;;;;;;;;;;2.90;99.90;;;;;;5039582;28;19929;-85
2021/12/23 10:00:15;;;;;;;;;;;0.70;99.90;;;;;;5045267;28;20447;-86
2021/12/23 10:02:41;;;;;;;;;;;0.60;99.90;;;;;;5044582;28;20113;-85
2021/12/23 10:05:13;;;;;;;;;;;-0.60;99.90;;;;;;5034946;28;19936;-86
2021/12/23 10:07:39;;;;;;;;;;;0.70;99.90;;;;;;5042106;28;19925;-86
2021/12/23 10:10:25;;;;;;;;;;;3.50;99.90;;;;;;5037174;28;19932;-86
2021/12/23 10:13:19;;;;;;;;;;;0.60;99.90;;;;;;5030940;28;20408;-86
2021/12/23 10:38:01;;;;;;;;;;;1.90;99.90;;;;;;5034476;28;19967;-86
2021/12/23 10:40:28;;;;;;;;;;;1.50;99.90;;;;;;5049377;28;19925;-86
2021/12/23 10:42:54;;;;;;;;;;;2.70;99.90;;;;;;5032690;28;19951;-87
2021/12/23 10:45:19;;;;;;;;;;;1.10;99.90;;;;;;5053983;28;20295;-86
2021/12/23 10:50:19;;;;;;;;;;;2.00;99.90;;;;;;5051959;28;20270;-86
2021/12/23 10:53:10;;;;;;;;;;;1.60;99.90;;;;;;5042092;28;19940;-86
2021/12/23 10:58:21;;;;;;;;;;;0.70;99.90;;;;;;5049636;28;19924;-87
2021/12/23 11:00:49;;;;;;;;;;;2.90;99.90;;;;;;5051323;28;19929;-86
2021/12/23 11:03:51;;;;;;;;;;;4.00;99.90;;;;;;5046877;28;19932;-86
2021/12/23 11:06:28;;;;;;;;;;;0.70;99.90;;;;;;5049710;28;20357;-87
2021/12/23 11:09:51;;;;;;;;;;;1.90;99.90;;;;;;5051579;28;20333;-89
2021/12/23 11:39:25;;;;;;;;;;;4.90;99.90;;;;;;5034322;28;19925;-88
2021/12/23 11:42:00;;;;;;;;;;;3.60;99.90;;;;;;5040634;28;19933;-87
2021/12/23 11:44:30;;;;;;;;;;;0.90;99.90;;;;;;5032210;28;19929;-86
2021/12/23 11:46:57;;;;;;;;;;;1.20;99.90;;;;;;5045203;28;20070;-87
2021/12/23 11:49:23;;;;;;;;;;;0.70;99.90;;;;;;5046059;28;19931;-86
2021/12/23 11:54:22;;;;;;;;;;;1.70;99.90;;;;;;5043563;28;20036;-85
2021/12/23 11:56:53;;;;;;;;;;;2.60;99.90;;;;;;5049347;28;19924;-86
2021/12/23 11:59:19;;;;;;;;;;;4.30;99.90;;;;;;5033352;28;19999;-85
2021/12/23 12:01:46;;;;;;;;;;;4.40;99.90;;;;;;5048593;28;19948;-86
2021/12/23 12:04:20;;;;;;;;;;;3.50;99.90;;;;;;5045791;28;20030;-85
2021/12/23 12:06:46;;;;;;;;;;;1.90;99.90;;;;;;5036006;28;20016;-86
2021/12/23 12:09:16;;;;;;;;;;;1.60;99.90;;;;;;5041163;28;19940;-85
2021/12/23 12:11:47;;;;;;;;;;;2.20;99.90;;;;;;5046632;28;20062;-86
2021/12/23 12:14:34;;;;;;;;;;;4.70;99.90;;;;;;5039060;28;19935;-86
2021/12/23 12:17:19;;;;;;;;;;;2.10;99.90;;;;;;5050299;28;19924;-86
2021/12/23 12:19:52;;;;;;;;;;;1.60;99.90;;;;;;5027708;28;20273;-87
2021/12/23 12:22:37;;;;;;;;;;;1.80;99.90;;;;;;5046105;28;20047;-84
2021/12/23 12:25:02;;;;;;;;;;;1.90;99.90;;;;;;5040936;28;19933;-86
2021/12/23 12:27:29;;;;;;;;;;;2.10;99.90;;;;;;5040395;28;19931;-86
2021/12/23 12:30:04;;;;;;;;;;;3.90;99.90;;;;;;5044651;28;20092;-85
2021/12/23 12:32:34;;;;;;;;;;;1.80;99.90;;;;;;5062143;28;19979;-86
2021/12/23 12:34:59;;;;;;;;;;;4.80;99.90;;;;;;5039094;28;20471;-85
2021/12/23 12:37:39;;;;;;;;;;;2.10;99.90;;;;;;5033054;28;19925;-86
2021/12/23 12:40:05;;;;;;;;;;;2.20;99.90;;;;;;5035203;28;19951;-86
2021/12/23 12:42:34;;;;;;;;;;;3.20;99.90;;;;;;5049573;28;19924;-86
2021/12/23 12:45:08;;;;;;;;;;;2.10;99.90;;;;;;5038460;28;19924;-86
2021/12/23 12:47:38;;;;;;;;;;;1.90;99.90;;;;;;5061070;28;19962;-86
2021/12/23 12:50:10;;;;;;;;;;;2.00;99.90;;;;;;5039382;28;19940;-86
2021/12/23 12:52:44;;;;;;;;;;;1.90;99.90;;;;;;5051709;28;19925;-86
2021/12/23 12:55:12;;;;;;;;;;;2.00;99.90;;;;;;5047052;28;19925;-85
2021/12/23 12:57:48;;;;;;;;;;;2.10;99.90;;;;;;5045641;28;19933;-85
2021/12/23 13:00:35;;;;;;;;;;;1.90;99.90;;;;;;5045632;28;20085;-84
2021/12/23 13:03:09;;;;;;;;;;;2.30;99.90;;;;;;5050171;28;19928;-85
2021/12/23 13:05:36;;;;;;;;;;;2.50;99.90;;;;;;5043697;28;19936;-86
2021/12/23 13:08:14;;;;;;;;;;;3.10;99.90;;;;;;5061391;28;20327;-85
2021/12/23 13:10:46;;;;;;;;;;;3.10;99.90;;;;;;5048696;28;19925;-86
2021/12/23 13:13:21;;;;;;;;;;;2.40;99.90;;;;;;5043136;28;20328;-85
2021/12/23 13:15:47;;;;;;;;;;;3.20;99.90;;;;;;5042116;28;19978;-85
2021/12/23 13:18:18;;;;;;;;;;;2.90;99.90;;;;;;5046780;28;20008;-84
2021/12/23 13:20:47;;;;;;;;;;;2.50;99.90;;;;;;5042534;28;19929;-84
2021/12/23 13:23:18;;;;;;;;;;;2.40;99.90;;;;;;5034969;28;19932;-85
2021/12/23 13:25:46;;;;;;;;;;;2.00;99.90;;;;;;5053267;28;19929;-85
2021/12/23 13:28:18;;;;;;;;;;;3.50;99.90;;;;;;5034051;28;20297;-84
2021/12/23 13:30:44;;;;;;;;;;;2.20;99.90;;;;;;5041232;28;19939;-84
2021/12/23 13:33:12;;;;;;;;;;;2.20;99.90;;;;;;5055123;28;20223;-85
2021/12/23 13:35:38;;;;;;;;;;;2.20;99.90;;;;;;5051299;28;20007;-85
2021/12/23 13:38:04;;;;;;;;;;;2.30;99.90;;;;;;5043885;28;20126;-84
2021/12/23 13:40:31;;;;;;;;;;;1.40;99.90;;;;;;5044220;28;19994;-85
2021/12/23 13:42:57;;;;;;;;;;;1.70;99.90;;;;;;5042125;28;20312;-85
2021/12/23 13:45:23;;;;;;;;;;;2.30;99.90;;;;;;5035902;28;19925;-84
2021/12/23 13:47:53;;;;;;;;;;;2.40;99.90;;;;;;5041157;28;19992;-84
2021/12/23 13:50:20;;;;;;;;;;;2.00;99.90;;;;;;5032585;28;20328;-84
2021/12/23 13:52:48;;;;;;;;;;;4.40;99.90;;;;;;5041244;28;19936;-84
2021/12/23 13:55:15;;;;;;;;;;;2.30;99.90;;;;;;5041011;28;19925;-84
2021/12/23 13:57:43;;;;;;;;;;;1.90;99.90;;;;;;5041815;28;19944;-84
2021/12/23 14:00:20;;;;;;;;;;;4.60;99.90;;;;;;5034376;28;19933;-84
2021/12/23 14:02:49;;;;;;;;;;;1.90;99.90;;;;;;5043901;28;19947;-85
2021/12/23 14:05:15;;;;;;;;;;;2.10;99.90;;;;;;5059497;28;19994;-85
2021/12/23 14:07:42;;;;;;;;;;;2.20;99.90;;;;;;5043906;28;19929;-84
2021/12/23 14:10:17;;;;;;;;;;;3.30;99.90;;;;;;5040069;28;19929;-84
2021/12/23 14:12:42;;;;;;;;;;;2.50;99.90;;;;;;5047178;28;19925;-84
2021/12/23 14:15:11;;;;;;;;;;;1.70;99.90;;;;;;5038263;28;19979;-85
2021/12/23 14:17:39;;;;;;;;;;;2.00;99.90;;;;;;5050738;28;19960;-84
2021/12/23 14:23:11;;;;;;;;;;;5.70;99.90;;;;;;5040729;28;20361;-84
2021/12/23 14:23:12;;;;;;;;;;;2.50;99.90;;;;;;5035019;28;19987;-84
2021/12/23 14:25:50;;;;;;;;;;;4.30;99.90;;;;;;5040278;28;19925;-85
2021/12/23 14:28:29;;;;;;;;;;;2.50;99.90;;;;;;5032381;28;19933;-85
2021/12/23 14:30:59;;;;;;;;;;;2.40;99.90;;;;;;5046086;28;19994;-85
2021/12/23 14:33:35;;;;;;;;;;;2.40;99.90;;;;;;5038614;28;20372;-85
2021/12/23 14:36:03;;;;;;;;;;;4.90;99.90;;;;;;5040635;28;20278;-85
2021/12/23 14:38:34;;;;;;;;;;;2.60;99.90;;;;;;5036683;28;19971;-85
2021/12/23 14:41:02;;;;;;;;;;;1.90;99.90;;;;;;5047125;28;20355;-85
2021/12/23 14:43:27;;;;;;;;;;;3.30;99.90;;;;;;5048618;28;20031;-85
2021/12/23 14:45:58;;;;;;;;;;;0.70;99.90;;;;;;5060516;28;20008;-85
2021/12/23 14:48:24;;;;;;;;;;;0.30;99.90;;;;;;5050271;28;19925;-85
2021/12/23 14:50:51;;;;;;;;;;;2.40;99.90;;;;;;5038548;28;19933;-85
2021/12/23 14:53:20;;;;;;;;;;;2.60;99.90;;;;;;5044208;28;19929;-85
2021/12/23 14:55:53;;;;;;;;;;;2.60;99.90;;;;;;5046980;28;19997;-86
2021/12/23 14:58:19;;;;;;;;;;;3.50;99.90;;;;;;5030112;28;19932;-86
2021/12/23 15:00:45;;;;;;;;;;;3.80;99.90;;;;;;5049834;28;19933;-86
2021/12/23 15:03:15;;;;;;;;;;;2.60;99.90;;;;;;5047120;28;19925;-86
2021/12/23 15:05:41;;;;;;;;;;;2.50;99.90;;;;;;5043807;28;20293;-87
2021/12/23 15:08:08;;;;;;;;;;;2.40;99.90;;;;;;5038020;28;19933;-86
2021/12/23 15:10:38;;;;;;;;;;;2.50;99.90;;;;;;5032006;28;19964;-86
2021/12/23 15:13:16;;;;;;;;;;;2.30;99.90;;;;;;5040514;28;20282;-87
2021/12/23 15:15:42;;;;;;;;;;;2.10;99.90;;;;;;5031753;28;20385;-87
2021/12/23 15:18:25;;;;;;;;;;;5.40;99.90;;;;;;5041749;28;19925;-87
2021/12/23 15:20:51;;;;;;;;;;;2.30;99.90;;;;;;5017956;28;19933;-86
2021/12/23 15:23:55;;;;;;;;;;;2.50;99.90;;;;;;5045338;28;19925;-86
2021/12/23 15:26:21;;;;;;;;;;;2.20;99.90;;;;;;4987616;28;19937;-86
2021/12/23 15:29:07;;;;;;;;;;;2.20;99.90;;;;;;4989198;28;20348;-84
2021/12/23 15:31:33;;;;;;;;;;;2.50;99.90;;;;;;5020037;28;20388;-86
2021/12/23 15:33:59;;;;;;;;;;;1.90;99.90;;;;;;5048805;28;19925;-86
2021/12/23 15:36:24;;;;;;;;;;;5.70;99.90;;;;;;5049159;28;19924;-85
2021/12/23 15:38:50;;;;;;;;;;;2.60;99.90;;;;;;5034770;28;19974;-85
2021/12/23 15:41:16;;;;;;;;;;;5.60;99.90;;;;;;5046715;28;19929;-85
2021/12/23 15:43:41;;;;;;;;;;;0.10;99.90;;;;;;5045693;28;20070;-86
2021/12/23 15:46:07;;;;;;;;;;;2.20;99.90;;;;;;5042623;28;19933;-85
2021/12/23 15:48:34;;;;;;;;;;;3.10;99.90;;;;;;5039425;28;20424;-85